LOWL/LNZ METAR and TAF weather

Enter ICAO airport designator
Station Type Date Time Source
LOWL METAR 2021/09/23 17:50 UTC NOAA

LOWL 231750Z 26004KT CAVOK 16/10 Q1017 NOSIG


Station Type Date Time Source
LOWL Decoded METAR 2021/09/23 17:50 UTC NOAA

Linz / Hoersching-Flughafen, Austria (LOWL) 48-14N 014-11E 313M
Sep 23, 2021 - 01:50 PM EDT / 2021.09.23 1750 UTC
Wind: from the W (260 degrees) at 5 MPH (4 KT):0
Visibility: greater than 7 mile(s):0
Temperature: 60 F (16 C)
Dew Point: 50 F (10 C)
Relative Humidity: 67%
Pressure (altimeter): 30.03 in. Hg (1017 hPa)
ob: LOWL 231750Z 26004KT CAVOK 16/10 Q1017 NOSIG
cycle: 18

Station Type Date Time Source
LOWL TAF 2021/09/23 18:27 UTC NOAA

TAF LOWL 231715Z 2318/2418 27004KT CAVOK TX20/2414Z TN09/2404Z
TEMPO 2403/2413 28010KT 9999 BKN045 PROB40
TEMPO 2409/2415 28016G27KT

Example: see airport list